Time;durP1;ratioP1;P1;durP2;ratioP2;P2;SDS_P1;SDS_P2;PMS_P1;PMS_P2;Temp;Humidity;BMP_temperature;BMP_pressure;BME280_temperature;BME280_humidity;BME280_pressure;Samples;Min_cycle;Max_cycle;Signal;HPM_P1;HPM_P2
2024/01/10 00:00:23;;;;;;;0.00;0.00;;;;;;;-3.58;74.96;145395.78;5028457;28;20226;-66
2024/01/10 00:02:50;;;;;;;0.00;0.00;;;;;;;-3.59;73.01;145394.50;5043408;28;20237;-66
2024/01/10 00:05:16;;;;;;;0.00;0.00;;;;;;;-3.62;75.51;145385.91;5042140;28;20770;-67
2024/01/10 00:07:43;;;;;;;0.00;0.00;;;;;;;-3.69;75.65;145369.88;5044528;28;20234;-67
2024/01/10 00:10:10;;;;;;;0.00;0.00;;;;;;;-3.72;76.16;145363.72;5043505;28;20237;-67
2024/01/10 00:12:38;;;;;;;0.00;0.00;;;;;;;-3.72;80.51;145362.50;5044140;28;20234;-67
2024/01/10 00:15:06;;;;;;;0.00;0.00;;;;;;;-3.72;83.41;145363.72;5041946;28;20232;-67
2024/01/10 00:17:32;;;;;;;0.07;0.07;;;;;;;-3.80;80.22;145342.78;5034536;28;20224;-67
2024/01/10 00:19:59;;;;;;;0.00;0.00;;;;;;;-3.78;78.76;145347.72;5036054;28;20218;-67
2024/01/10 00:22:26;;;;;;;0.00;0.00;;;;;;;-3.80;81.85;145342.78;5044936;28;20225;-68
2024/01/10 00:24:52;;;;;;;0.00;0.00;;;;;;;-3.68;75.67;145372.31;5041288;28;20221;-67
2024/01/10 00:27:19;;;;;;;0.00;0.00;;;;;;;-3.64;74.71;145382.19;5041113;28;20719;-67
2024/01/10 00:29:47;;;;;;;0.00;0.00;;;;;;;-3.59;78.97;145394.50;5040024;28;20228;-67
2024/01/10 00:32:13;;;;;;;0.00;0.00;;;;;;;-3.61;83.23;145388.38;5042297;28;20238;-67
2024/01/10 00:34:40;;;;;;;0.00;0.00;;;;;;;-3.71;80.82;145364.97;5038721;28;20231;-67
2024/01/10 00:37:06;;;;;;;0.00;0.00;;;;;;;-3.70;82.60;145367.41;5039161;28;20588;-67
2024/01/10 00:39:33;;;;;;;0.00;0.00;;;;;;;-3.78;81.08;145347.72;5043188;28;20217;-67
2024/01/10 00:42:00;;;;;;;0.00;0.00;;;;;;;-3.78;79.93;145347.72;5041594;28;20249;-67
2024/01/10 00:44:27;;;;;;;0.00;0.00;;;;;;;-3.77;80.50;145350.19;5043158;28;20224;-67
2024/01/10 00:46:55;;;;;;;0.00;0.00;;;;;;;-3.74;83.52;145358.78;5039668;28;20225;-67
2024/01/10 00:49:21;;;;;;;0.00;0.00;;;;;;;-3.75;83.66;145356.31;5039942;28;20237;-67
2024/01/10 00:51:48;;;;;;;0.00;0.00;;;;;;;-3.71;81.90;145364.97;5040178;28;20227;-67
2024/01/10 00:54:17;;;;;;;0.00;0.00;;;;;;;-3.72;85.38;145363.72;5037145;28;20574;-66
2024/01/10 00:56:44;;;;;;;0.00;0.00;;;;;;;-3.70;84.36;145367.41;5050725;28;20222;-66
2024/01/10 00:59:10;;;;;;;0.00;0.00;;;;;;;-3.65;82.61;145379.72;5044136;28;20224;-66
2024/01/10 01:01:37;;;;;;;0.00;0.00;;;;;;;-3.54;78.64;145405.63;5045434;28;20268;-66
2024/01/10 01:04:06;;;;;;;0.00;0.00;;;;;;;-3.39;76.03;145440.16;5044730;28;20225;-66
2024/01/10 01:06:32;;;;;;;0.00;0.00;;;;;;;-3.30;74.21;145462.34;5038876;28;20238;-67
2024/01/10 01:08:59;;;;;;;0.00;0.00;;;;;;;-3.21;73.77;145483.28;5038551;28;20214;-67
2024/01/10 01:11:26;;;;;;;0.00;0.00;;;;;;;-3.15;72.17;145499.28;5033731;28;20252;-67
2024/01/10 01:13:52;;;;;;;0.00;0.00;;;;;;;-3.05;72.05;145521.50;5039048;28;20253;-68
2024/01/10 01:16:19;;;;;;;0.00;0.00;;;;;;;-3.04;71.70;145523.97;5039270;28;20218;-67
2024/01/10 01:18:45;;;;;;;0.00;0.00;;;;;;;-2.99;72.57;145537.53;5039121;28;20221;-67
2024/01/10 01:21:13;;;;;;;0.00;0.00;;;;;;;-3.01;72.51;145532.63;5037107;28;20703;-67
2024/01/10 01:23:40;;;;;;;0.00;0.00;;;;;;;-2.95;72.82;145544.94;5039378;28;20289;-67
2024/01/10 01:26:07;;;;;;;0.00;0.00;;;;;;;-2.90;71.84;145557.28;5041286;28;20223;-68
2024/01/10 01:28:33;;;;;;;0.00;0.00;;;;;;;-2.85;72.51;145569.63;5038321;28;20215;-68
2024/01/10 01:31:00;;;;;;;0.00;0.00;;;;;;;-2.77;71.99;145588.09;5041567;28;20229;-68
2024/01/10 01:33:26;;;;;;;0.00;0.00;;;;;;;-2.77;73.54;145588.09;5044411;28;20230;-67
2024/01/10 01:35:54;;;;;;;0.00;0.00;;;;;;;-2.75;74.86;145593.03;5045136;28;20226;-67
2024/01/10 01:38:22;;;;;;;0.00;0.00;;;;;;;-2.73;70.67;145597.97;5042087;28;20219;-67
2024/01/10 01:40:48;;;;;;;0.00;0.00;;;;;;;-2.70;70.69;145605.38;5042577;28;20275;-67
2024/01/10 01:43:20;;;;;;;0.00;0.00;;;;;;;-2.65;74.31;145617.69;5043726;28;20589;-68
2024/01/10 01:45:47;;;;;;;0.00;0.00;;;;;;;-2.77;74.82;145589.34;5042724;28;20310;-68
2024/01/10 01:48:14;;;;;;;0.00;0.00;;;;;;;-2.76;69.34;145591.81;5039251;28;20577;-68
2024/01/10 01:50:41;;;;;;;0.00;0.00;;;;;;;-2.70;69.65;145606.63;5045376;28;20587;-66
2024/01/10 01:53:08;;;;;;;0.00;0.00;;;;;;;-2.69;72.27;145607.84;5046013;28;20225;-66
2024/01/10 01:55:37;;;;;;;0.00;0.00;;;;;;;-2.76;73.37;145591.81;5045975;28;20234;-67
2024/01/10 01:58:03;;;;;;;0.00;0.00;;;;;;;-2.89;74.91;145560.97;5041326;28;20260;-67
2024/01/10 02:00:31;;;;;;;0.00;0.00;;;;;;;-2.96;76.71;145543.69;5039999;28;20242;-66
2024/01/10 02:02:59;;;;;;;0.00;0.00;;;;;;;-3.08;76.26;145515.34;5043333;28;20222;-66
2024/01/10 02:05:26;;;;;;;0.00;0.00;;;;;;;-3.03;76.58;145526.44;5049615;28;20221;-66
2024/01/10 02:07:53;;;;;;;0.00;0.00;;;;;;;-3.12;76.27;145505.47;5045283;28;20299;-66
2024/01/10 02:10:20;;;;;;;0.00;0.00;;;;;;;-3.17;76.12;145493.16;5043196;28;20224;-67
2024/01/10 02:12:48;;;;;;;0.00;0.00;;;;;;;-3.22;76.11;145480.81;5048609;28;20230;-67
2024/01/10 02:15:16;;;;;;;0.00;0.00;;;;;;;-3.17;76.54;145493.16;5045063;28;20223;-67
2024/01/10 02:17:43;;;;;;;0.00;0.00;;;;;;;-3.14;75.76;145501.75;5039666;28;20226;-67
2024/01/10 02:20:10;;;;;;;0.00;0.00;;;;;;;-3.16;76.85;145496.81;5042827;28;20692;-67
2024/01/10 02:22:37;;;;;;;0.00;0.00;;;;;;;-3.26;76.38;145473.41;5046924;28;20670;-67
2024/01/10 02:25:06;;;;;;;0.00;0.00;;;;;;;-3.29;77.33;145464.81;5047033;28;20226;-66
2024/01/10 02:27:33;;;;;;;0.00;0.00;;;;;;;-3.29;79.00;145464.81;5048237;28;20237;-66
2024/01/10 02:30:00;;;;;;;0.00;0.00;;;;;;;-3.27;82.21;145469.75;5044372;28;20222;-67
2024/01/10 02:32:27;;;;;;;0.00;0.00;;;;;;;-3.26;82.68;145472.22;5042178;28;20246;-68
2024/01/10 02:34:54;;;;;;;0.00;0.00;;;;;;;-3.28;81.39;145468.50;5044593;28;20213;-67
2024/01/10 02:37:20;;;;;;;0.00;0.00;;;;;;;-3.26;79.84;145472.22;5046242;28;20241;-67
2024/01/10 02:39:47;;;;;;;0.00;0.00;;;;;;;-3.16;79.56;145495.63;5045436;28;20233;-67
2024/01/10 02:42:15;;;;;;;0.00;0.00;;;;;;;-3.20;80.77;145485.75;5042975;28;20226;-67
2024/01/10 02:44:41;;;;;;;0.00;0.00;;;;;;;-3.20;83.33;145485.75;5050632;28;20233;-67
2024/01/10 02:47:08;;;;;;;0.00;0.00;;;;;;;-3.20;83.53;145487.00;5048736;28;20226;-67
2024/01/10 02:49:35;;;;;;;0.00;0.00;;;;;;;-3.19;84.90;145488.22;5041108;28;20240;-67
2024/01/10 02:52:01;;;;;;;0.00;0.00;;;;;;;-3.20;85.03;145485.75;5046991;28;20230;-67
2024/01/10 02:54:28;;;;;;;0.00;0.00;;;;;;;-3.20;85.94;145487.00;5042697;28;20233;-67
2024/01/10 02:56:55;;;;;;;0.00;0.00;;;;;;;-3.17;86.33;145493.16;5044437;28;20692;-67
2024/01/10 02:59:23;;;;;;;0.00;0.00;;;;;;;-3.18;85.51;145491.91;5045184;28;20226;-67
2024/01/10 03:01:49;;;;;;;0.00;0.00;;;;;;;-3.10;85.14;145510.41;5034595;28;20222;-67
2024/01/10 03:04:18;;;;;;;0.00;0.00;;;;;;;-3.10;79.98;145510.41;5044797;28;20561;-67
2024/01/10 03:06:45;;;;;;;0.00;0.00;;;;;;;-3.04;82.26;145525.22;5046561;28;20241;-67
2024/01/10 03:09:11;;;;;;;0.00;0.00;;;;;;;-3.04;86.14;145525.22;5045846;28;20244;-67
2024/01/10 03:11:38;;;;;;;0.00;0.00;;;;;;;-3.03;85.66;145526.44;5050643;28;20712;-67
2024/01/10 03:14:09;;;;;;;0.00;0.00;;;;;;;-3.03;85.34;145527.69;5047935;28;20224;-67
2024/01/10 03:16:37;;;;;;;0.00;0.00;;;;;;;-3.00;85.59;145533.81;5048477;28;20232;-67
2024/01/10 03:19:04;;;;;;;0.00;0.00;;;;;;;-3.00;83.75;145533.81;5048517;28;20222;-67
2024/01/10 03:21:31;;;;;;;0.00;0.00;;;;;;;-2.94;84.00;145547.41;5043084;28;20935;-67
2024/01/10 03:23:59;;;;;;;0.00;0.00;;;;;;;-2.96;83.91;145543.69;5051259;28;20223;-67
2024/01/10 03:26:26;;;;;;;0.00;0.00;;;;;;;-2.92;83.65;145552.34;5043701;28;20231;-67
2024/01/10 03:28:53;;;;;;;0.00;0.00;;;;;;;-2.93;82.79;145551.09;5043672;28;20222;-67
2024/01/10 03:31:20;;;;;;;0.00;0.00;;;;;;;-2.95;82.40;145544.94;5042778;28;20234;-67
2024/01/10 03:33:48;;;;;;;0.00;0.00;;;;;;;-3.07;83.76;145516.56;5048455;28;20587;-67
2024/01/10 03:36:17;;;;;;;0.00;0.00;;;;;;;-3.32;84.96;145458.63;5043208;28;20244;-67
2024/01/10 03:38:44;;;;;;;0.00;0.00;;;;;;;-3.35;86.20;145450.03;5045850;28;20413;-67
2024/01/10 03:41:14;;;;;;;0.00;0.00;;;;;;;-3.41;87.11;145437.69;5042470;28;20244;-67
2024/01/10 03:43:40;;;;;;;0.00;0.00;;;;;;;-3.45;87.94;145427.81;5040910;28;20648;-67
2024/01/10 03:46:07;;;;;;;0.00;0.00;;;;;;;-3.41;87.78;145436.44;5045145;28;20233;-67
2024/01/10 03:48:34;;;;;;;0.00;0.00;;;;;;;-3.45;87.71;145426.56;5042340;28;20245;-67
2024/01/10 03:51:02;;;;;;;0.00;0.00;;;;;;;-3.39;87.90;145441.38;5042482;28;20783;-67
2024/01/10 03:53:29;;;;;;;0.00;0.00;;;;;;;-3.46;88.74;145424.09;5041584;28;20894;-67
2024/01/10 03:55:56;;;;;;;0.00;0.00;;;;;;;-3.47;88.86;145422.88;5046554;28;20777;-67
2024/01/10 03:58:23;;;;;;;0.00;0.00;;;;;;;-3.46;89.32;145425.34;5042994;28;20225;-67
2024/01/10 04:00:49;;;;;;;0.00;0.00;;;;;;;-3.43;89.29;145431.50;5059868;28;20226;-67
2024/01/10 04:03:16;;;;;;;0.00;0.00;;;;;;;-3.52;87.85;145410.56;5047314;28;20229;-67
2024/01/10 04:05:43;;;;;;;0.00;0.00;;;;;;;-3.58;88.10;145396.97;5046169;28;20232;-67
2024/01/10 04:08:11;;;;;;;0.00;0.00;;;;;;;-3.64;87.78;145380.97;5046035;28;20302;-67
2024/01/10 04:10:37;;;;;;;0.00;0.00;;;;;;;-3.73;87.28;145360.03;5046333;28;20233;-67
2024/01/10 04:13:04;;;;;;;0.00;0.00;;;;;;;-3.87;88.04;145328.00;5047007;28;20221;-67
2024/01/10 04:15:31;;;;;;;0.00;0.00;;;;;;;-3.92;87.88;145314.41;5045596;28;20580;-67
2024/01/10 04:17:57;;;;;;;0.00;0.00;;;;;;;-3.92;88.75;145315.69;5047770;28;20224;-67
2024/01/10 04:20:24;;;;;;;0.00;0.00;;;;;;;-3.94;88.66;145310.75;5046823;28;20232;-67
2024/01/10 04:22:51;;;;;;;0.00;0.00;;;;;;;-3.94;89.20;145309.50;5050825;28;20227;-67
2024/01/10 04:25:19;;;;;;;0.00;0.00;;;;;;;-3.97;88.86;145302.09;5039316;28;20749;-67
2024/01/10 04:27:45;;;;;;;0.00;0.00;;;;;;;-3.94;88.76;145309.50;5041517;28;20237;-67
2024/01/10 04:32:54;;;;;;;0.00;0.00;;;;;;;-3.98;88.53;145299.63;5016106;23;20589;-67
2024/01/10 04:35:20;;;;;;;0.00;0.00;;;;;;;-3.98;88.50;145299.63;4954601;28;20232;-67
2024/01/10 04:37:47;;;;;;;0.00;0.00;;;;;;;-3.96;88.79;145304.56;4956265;28;20225;-67
2024/01/10 04:40:14;;;;;;;0.00;0.00;;;;;;;-3.93;90.10;145311.97;4960315;28;20702;-67
2024/01/10 04:42:42;;;;;;;0.00;0.00;;;;;;;-3.90;89.15;145319.34;4970748;28;20231;-67
2024/01/10 04:45:09;;;;;;;0.00;0.00;;;;;;;-3.86;88.86;145330.47;4970754;28;20243;-67
2024/01/10 04:47:35;;;;;;;0.00;0.00;;;;;;;-3.83;89.23;145336.59;4967003;28;20234;-67
2024/01/10 04:50:02;;;;;;;0.00;0.00;;;;;;;-3.80;89.93;145344.00;4971984;28;20222;-67
2024/01/10 04:52:29;;;;;;;0.00;0.00;;;;;;;-3.79;89.15;145345.25;4972262;28;20742;-67
2024/01/10 04:54:55;;;;;;;0.00;0.00;;;;;;;-3.78;89.97;145348.94;4976479;28;20232;-67
2024/01/10 04:57:22;;;;;;;0.00;0.00;;;;;;;-3.75;90.58;145355.13;4973431;28;20228;-67
2024/01/10 04:59:50;;;;;;;0.00;0.00;;;;;;;-3.79;89.86;145345.25;4971409;28;20563;-67
2024/01/10 05:02:17;;;;;;;0.00;0.00;;;;;;;-3.78;89.79;145347.72;4969046;28;20581;-67
2024/01/10 05:04:44;;;;;;;0.00;0.00;;;;;;;-3.73;89.54;145360.03;4953178;28;20700;-67
2024/01/10 05:07:10;;;;;;;0.00;0.00;;;;;;;-3.79;87.66;145345.25;4959371;28;20320;-67
2024/01/10 05:09:37;;;;;;;0.00;0.00;;;;;;;-3.87;88.10;145328.00;4971433;28;20224;-67
2024/01/10 05:12:04;;;;;;;0.00;0.00;;;;;;;-3.89;87.52;145321.81;4961651;28;20551;-67
2024/01/10 05:14:31;;;;;;;0.00;0.00;;;;;;;-3.89;87.81;145323.06;4969612;28;20243;-67
2024/01/10 05:16:59;;;;;;;0.00;0.00;;;;;;;-3.89;87.14;145321.81;4970140;28;20575;-67
2024/01/10 05:19:25;;;;;;;0.00;0.00;;;;;;;-3.90;86.73;145319.34;4963937;28;20707;-67
2024/01/10 05:21:54;;;;;;;0.00;0.00;;;;;;;-3.94;86.91;145310.75;4974590;28;20243;-67
2024/01/10 05:24:20;;;;;;;0.00;0.00;;;;;;;-3.97;87.81;145303.34;4971740;28;20223;-67
2024/01/10 05:26:51;;;;;;;0.00;0.00;;;;;;;-4.00;88.79;145297.16;4975656;28;20690;-67
2024/01/10 05:29:19;;;;;;;0.00;0.00;;;;;;;-4.05;89.22;145283.63;4972852;28;20227;-67
2024/01/10 05:31:46;;;;;;;0.00;0.00;;;;;;;-4.12;88.34;145266.38;4974733;28;20229;-67
2024/01/10 05:34:14;;;;;;;0.00;0.00;;;;;;;-4.18;88.25;145252.81;4973473;28;20304;-68
2024/01/10 05:36:41;;;;;;;0.00;0.00;;;;;;;-4.24;89.15;145238.06;4967700;28;20710;-67
2024/01/10 05:39:07;;;;;;;0.00;0.00;;;;;;;-4.33;90.32;145218.34;4973415;28;20726;-67
2024/01/10 05:41:34;;;;;;;0.00;0.00;;;;;;;-4.36;91.38;145210.97;4973636;28;20229;-67
2024/01/10 05:44:00;;;;;;;0.00;0.00;;;;;;;-4.41;91.26;145198.66;4976170;28;20216;-67
2024/01/10 05:46:28;;;;;;;0.00;0.00;;;;;;;-4.52;91.80;145172.75;4971341;28;20223;-66
2024/01/10 05:48:54;;;;;;;0.00;0.00;;;;;;;-4.62;92.35;145149.38;4972281;28;20216;-68
2024/01/10 05:51:22;;;;;;;0.10;0.10;;;;;;;-4.72;93.46;145124.75;4973571;28;20232;-67
2024/01/10 05:53:49;;;;;;;0.10;0.10;;;;;;;-4.72;93.00;145124.75;4977517;28;20233;-67
2024/01/10 05:56:16;;;;;;;0.00;0.00;;;;;;;-4.84;93.54;145095.19;4964887;28;20335;-67
2024/01/10 05:58:42;;;;;;;0.10;0.10;;;;;;;-4.92;94.20;145076.72;4966514;28;20238;-67
2024/01/10 06:01:12;;;;;;;0.00;0.00;;;;;;;-4.99;95.40;145059.50;4978068;28;20238;-67
2024/01/10 06:03:38;;;;;;;0.00;0.00;;;;;;;-5.08;95.39;145038.53;4970553;28;20224;-67
2024/01/10 06:06:05;;;;;;;0.07;0.07;;;;;;;-5.08;97.21;145038.53;4970509;28;20227;-67
2024/01/10 06:08:33;;;;;;;0.10;0.10;;;;;;;-5.21;97.69;145009.00;4964827;28;20236;-68
2024/01/10 06:11:03;;;;;;;0.00;0.00;;;;;;;-5.25;98.31;144999.13;4975406;28;20229;-67
2024/01/10 06:13:29;;;;;;;0.00;0.00;;;;;;;-5.29;99.00;144989.28;4974440;28;20238;-67
2024/01/10 06:15:56;;;;;;;0.00;0.00;;;;;;;-5.32;99.54;144980.69;4977342;28;20216;-67
2024/01/10 06:18:22;;;;;;;0.10;0.10;;;;;;;-5.41;99.58;144959.78;4971751;28;20231;-67
2024/01/10 06:20:49;;;;;;;0.00;0.00;;;;;;;-5.43;99.54;144954.88;4961563;28;20715;-67
2024/01/10 06:23:16;;;;;;;0.00;0.00;;;;;;;-5.50;99.26;144938.84;4967891;28;20953;-67
2024/01/10 06:25:44;;;;;;;0.00;0.00;;;;;;;-5.56;98.75;144924.06;4978795;28;20710;-68
2024/01/10 06:28:10;;;;;;;0.10;0.10;;;;;;;-5.59;98.75;144916.69;4972138;28;20231;-67
2024/01/10 06:30:37;;;;;;;0.00;0.00;;;;;;;-5.65;99.94;144903.19;4977263;28;20684;-68
2024/01/10 06:33:06;;;;;;;0.00;0.00;;;;;;;-5.63;99.46;144909.31;4965968;28;20720;-67
2024/01/10 06:35:34;;;;;;;0.00;0.00;;;;;;;-5.74;100.00;144882.22;4974910;28;20227;-67
2024/01/10 06:38:03;;;;;;;0.00;0.00;;;;;;;-5.75;100.00;144878.56;4976938;28;20235;-67
2024/01/10 06:40:31;;;;;;;0.00;0.00;;;;;;;-5.81;100.00;144866.25;4975304;28;21238;-67
2024/01/10 06:42:59;;;;;;;0.00;0.00;;;;;;;-5.81;100.00;144865.00;4965919;28;20235;-67
2024/01/10 06:45:26;;;;;;;0.00;0.00;;;;;;;-5.81;100.00;144865.00;4963859;28;20724;-67
2024/01/10 06:47:52;;;;;;;0.00;0.00;;;;;;;-5.86;100.00;144853.94;4963812;28;20231;-67
2024/01/10 06:50:20;;;;;;;0.07;0.07;;;;;;;-5.89;100.00;144846.56;4975567;28;20714;-67
2024/01/10 06:52:46;;;;;;;0.00;0.00;;;;;;;-5.97;100.00;144826.88;4978441;28;20236;-67
2024/01/10 06:55:13;;;;;;;0.00;0.00;;;;;;;-5.99;100.00;144821.97;4966581;28;20229;-67
2024/01/10 06:57:40;;;;;;;0.00;0.00;;;;;;;-6.04;100.00;144809.72;4971526;28;20240;-67
2024/01/10 07:00:10;;;;;;;0.00;0.00;;;;;;;-6.06;100.00;144804.78;4982290;28;20243;-67
2024/01/10 07:02:37;;;;;;;0.00;0.00;;;;;;;-6.02;100.00;144815.88;4947012;28;20231;-66
2024/01/10 07:05:07;;;;;;;0.10;0.10;;;;;;;-6.01;100.00;144818.34;4975559;28;20608;-66
2024/01/10 07:07:35;;;;;;;0.00;0.00;;;;;;;-6.05;100.00;144807.25;4970963;28;20230;-67
2024/01/10 07:10:04;;;;;;;0.00;0.00;;;;;;;-6.03;100.00;144812.16;4970711;28;20226;-67
2024/01/10 07:12:31;;;;;;;0.10;0.10;;;;;;;-6.09;100.00;144798.66;4973499;28;20338;-67
2024/01/10 07:14:58;;;;;;;0.00;0.00;;;;;;;-6.09;100.00;144799.88;4976371;28;20247;-68
2024/01/10 07:17:26;;;;;;;0.00;0.00;;;;;;;-6.08;100.00;144802.31;4980550;28;20722;-68
2024/01/10 07:19:53;;;;;;;0.00;0.00;;;;;;;-6.02;100.00;144814.63;4981917;28;20225;-68
2024/01/10 07:22:19;;;;;;;0.10;0.10;;;;;;;-5.99;100.00;144823.22;4953203;28;20247;-68
2024/01/10 07:24:47;;;;;;;0.00;0.00;;;;;;;-6.01;100.00;144817.09;4971710;28;20235;-67
2024/01/10 07:27:14;;;;;;;0.00;0.00;;;;;;;-6.03;100.00;144812.16;4965260;28;20703;-68
2024/01/10 07:29:41;;;;;;;0.00;0.00;;;;;;;-6.10;100.00;144797.41;4969764;28;20303;-68
2024/01/10 07:32:11;;;;;;;0.00;0.00;;;;;;;-5.99;100.00;144821.97;4975357;28;20227;-69
2024/01/10 07:34:39;;;;;;;0.00;0.00;;;;;;;-6.02;100.00;144814.63;4972274;28;20304;-68
2024/01/10 07:37:05;;;;;;;0.00;0.00;;;;;;;-6.04;100.00;144810.97;4976863;28;20591;-68
2024/01/10 07:39:32;;;;;;;0.00;0.00;;;;;;;-6.00;100.00;144819.53;4961273;28;20678;-68
2024/01/10 07:42:02;;;;;;;0.10;0.10;;;;;;;-5.96;100.00;144829.34;4971011;28;20227;-68
2024/01/10 07:44:28;;;;;;;0.00;0.00;;;;;;;-5.94;100.00;144834.25;4974967;28;20225;-68
2024/01/10 07:46:55;;;;;;;0.00;0.00;;;;;;;-5.95;100.00;144831.81;4960326;28;20778;-68
2024/01/10 07:49:23;;;;;;;0.00;0.00;;;;;;;-5.95;100.00;144831.81;4972042;28;20231;-68
2024/01/10 07:51:51;;;;;;;0.00;0.00;;;;;;;-5.91;100.00;144841.66;4974670;28;20350;-67
2024/01/10 07:54:18;;;;;;;0.10;0.10;;;;;;;-5.86;100.00;144853.94;4973079;28;20232;-67
2024/01/10 07:56:45;;;;;;;0.10;0.10;;;;;;;-5.81;100.00;144865.00;4974018;28;20224;-67
2024/01/10 07:59:14;;;;;;;0.00;0.00;;;;;;;-5.77;99.48;144874.84;4959318;28;20229;-67
2024/01/10 08:01:41;;;;;;;0.00;0.00;;;;;;;-5.75;98.42;144878.56;4973452;28;20229;-67
2024/01/10 08:04:08;;;;;;;0.00;0.00;;;;;;;-5.69;99.65;144893.34;4975605;28;20232;-67
2024/01/10 08:06:35;;;;;;;0.00;0.00;;;;;;;-5.68;100.00;144897.00;4974018;28;20302;-67
2024/01/10 08:09:04;;;;;;;0.00;0.00;;;;;;;-5.63;100.00;144908.09;4976922;28;20306;-67
2024/01/10 08:11:31;;;;;;;0.00;0.00;;;;;;;-5.53;100.00;144932.72;4970017;28;20250;-67
2024/01/10 08:13:57;;;;;;;0.00;0.00;;;;;;;-5.51;100.00;144937.63;4971074;28;20230;-67
2024/01/10 08:16:24;;;;;;;0.00;0.00;;;;;;;-5.49;100.00;144942.56;4979457;28;20229;-67
2024/01/10 08:18:51;;;;;;;0.00;0.00;;;;;;;-5.50;100.00;144938.84;4966273;28;20303;-68
2024/01/10 08:21:17;;;;;;;0.00;0.00;;;;;;;-5.44;100.00;144952.41;4971105;28;20233;-68
2024/01/10 08:23:44;;;;;;;0.00;0.00;;;;;;;-5.44;100.00;144952.41;4974736;28;20252;-68
2024/01/10 08:26:12;;;;;;;0.00;0.00;;;;;;;-5.41;100.00;144961.00;4971440;28;20228;-68
2024/01/10 08:28:40;;;;;;;0.00;0.00;;;;;;;-5.37;100.00;144970.84;4974594;28;20230;-68
2024/01/10 08:31:08;;;;;;;0.00;0.00;;;;;;;-5.37;100.00;144969.63;4970771;28;20261;-68
2024/01/10 08:33:34;;;;;;;0.00;0.00;;;;;;;-5.36;100.00;144973.31;4972418;28;20239;-68
2024/01/10 08:36:02;;;;;;;0.10;0.10;;;;;;;-5.29;100.00;144988.09;4974286;28;20603;-67
2024/01/10 08:38:28;;;;;;;0.00;0.00;;;;;;;-5.23;100.00;145002.84;4972007;28;20257;-67
2024/01/10 08:40:55;;;;;;;0.00;0.00;;;;;;;-5.13;99.66;145026.22;4976883;28;20231;-67
2024/01/10 08:43:23;;;;;;;0.00;0.00;;;;;;;-5.10;98.88;145034.88;4961389;28;20704;-67
2024/01/10 08:45:49;;;;;;;0.00;0.00;;;;;;;-5.06;99.07;145043.47;4980443;28;20228;-63
2024/01/10 08:48:16;;;;;;;0.00;0.00;;;;;;;-5.04;99.47;145048.38;4975935;28;20227;-66
2024/01/10 08:50:43;;;;;;;0.03;0.03;;;;;;;-4.98;99.49;145061.97;4969187;28;20307;-66
2024/01/10 08:53:10;;;;;;;0.00;0.00;;;;;;;-4.95;99.57;145069.34;4975272;28;20251;-67
2024/01/10 08:55:37;;;;;;;0.00;0.00;;;;;;;-4.84;99.70;145095.19;4960097;28;20233;-66
2024/01/10 08:58:04;;;;;;;0.00;0.00;;;;;;;-4.70;99.20;145128.41;4972300;28;20286;-66
2024/01/10 09:00:32;;;;;;;0.00;0.00;;;;;;;-4.59;97.71;145155.50;4972849;28;20239;-66
2024/01/10 09:02:59;;;;;;;0.00;0.00;;;;;;;-4.52;96.89;145172.75;4977599;28;20231;-66
2024/01/10 09:05:25;;;;;;;0.10;0.10;;;;;;;-4.54;95.99;145166.63;4972725;28;20700;-66
2024/01/10 09:07:53;;;;;;;0.00;0.00;;;;;;;-4.51;95.86;145175.22;4976373;28;20231;-66
2024/01/10 09:10:21;;;;;;;0.00;0.00;;;;;;;-4.53;96.25;145170.28;4970661;28;20317;-66
2024/01/10 09:12:48;;;;;;;0.00;0.00;;;;;;;-4.54;96.37;145166.63;4970616;28;20236;-66
2024/01/10 09:15:14;;;;;;;0.10;0.10;;;;;;;-4.53;96.11;145169.06;4973712;28;20238;-66
2024/01/10 09:17:43;;;;;;;0.03;0.03;;;;;;;-4.49;95.82;145178.94;4975509;28;20210;-66
2024/01/10 09:20:10;;;;;;;0.00;0.00;;;;;;;-4.45;95.98;145190.00;4964400;28;20586;-66
2024/01/10 09:22:38;;;;;;;0.00;0.00;;;;;;;-4.41;96.23;145198.66;4958878;28;20236;-66
2024/01/10 09:25:05;;;;;;;0.10;0.10;;;;;;;-4.37;96.00;145207.25;4972833;28;20229;-66
2024/01/10 09:27:33;;;;;;;0.00;0.00;;;;;;;-4.25;95.99;145236.81;4970637;28;20715;-66
2024/01/10 09:30:01;;;;;;;0.00;0.00;;;;;;;-4.20;95.39;145249.13;4973361;28;20307;-66
2024/01/10 09:32:28;;;;;;;0.00;0.00;;;;;;;-4.13;95.89;145265.13;4972752;28;20314;-66
2024/01/10 09:34:56;;;;;;;0.00;0.00;;;;;;;-4.10;95.36;145272.53;4971576;28;20227;-67
2024/01/10 09:37:23;;;;;;;0.00;0.00;;;;;;;-3.97;95.04;145303.34;4978154;28;20285;-66
2024/01/10 09:39:50;;;;;;;0.00;0.00;;;;;;;-3.91;95.14;145318.13;4973484;28;20227;-66
2024/01/10 09:42:16;;;;;;;0.00;0.00;;;;;;;-3.79;94.31;145346.47;4978756;28;20286;-66
2024/01/10 09:44:43;;;;;;;0.00;0.00;;;;;;;-3.81;92.85;145341.53;4973169;28;20742;-66
2024/01/10 09:47:10;;;;;;;0.00;0.00;;;;;;;-3.86;92.09;145330.47;4975737;28;20684;-66
2024/01/10 09:49:37;;;;;;;0.00;0.00;;;;;;;-3.79;92.07;145345.25;4974231;28;20228;-66
2024/01/10 09:52:10;;;;;;;0.00;0.00;;;;;;;-3.65;91.56;145378.50;4971684;28;20219;-67
2024/01/10 09:54:39;;;;;;;0.00;0.00;;;;;;;-3.63;90.16;145384.66;4971753;28;20263;-67
2024/01/10 09:57:06;;;;;;;0.00;0.00;;;;;;;-3.63;90.20;145383.44;4974850;28;20219;-66
2024/01/10 09:59:33;;;;;;;0.00;0.00;;;;;;;-3.54;90.51;145405.63;4972988;28;20239;-66
2024/01/10 10:02:00;;;;;;;0.00;0.00;;;;;;;-3.56;89.14;145400.69;4979677;28;20729;-66
2024/01/10 10:04:28;;;;;;;0.00;0.00;;;;;;;-3.52;89.80;145409.31;4959678;28;20227;-66
2024/01/10 10:07:00;;;;;;;0.00;0.00;;;;;;;-3.36;89.36;145447.56;4974772;28;20224;-65
2024/01/10 10:09:29;;;;;;;0.00;0.00;;;;;;;-2.84;100.00;145572.09;4967345;28;20760;-60
2024/01/10 10:11:57;;;;;;;0.00;0.00;;;;;;;-2.30;99.42;145701.59;4971375;28;20255;-66
2024/01/10 10:14:26;;;;;;;0.00;0.00;;;;;;;-2.41;95.00;145674.47;4972381;28;20221;-66
2024/01/10 10:16:53;;;;;;;0.00;0.00;;;;;;;-2.44;88.68;145668.25;4970892;28;20287;-66
2024/01/10 10:19:24;;;;;;;0.00;0.00;;;;;;;-2.63;85.75;145621.38;4969390;28;20220;-66
2024/01/10 10:21:50;;;;;;;0.00;0.00;;;;;;;-2.58;85.24;145633.72;4973665;28;20652;-66
2024/01/10 10:24:18;;;;;;;0.00;0.00;;;;;;;-2.61;84.33;145627.56;4974692;28;20609;-66
2024/01/10 10:26:46;;;;;;;0.00;0.00;;;;;;;-2.56;84.82;145638.66;4981004;28;20227;-66
2024/01/10 10:29:18;;;;;;;0.00;0.00;;;;;;;-2.62;82.30;145625.09;4977473;28;20320;-67
2024/01/10 10:31:48;;;;;;;0.00;0.00;;;;;;;-2.66;81.40;145615.22;4977599;28;20758;-67
2024/01/10 10:34:22;;;;;;;0.00;0.00;;;;;;;-2.61;81.38;145626.31;4973164;28;20252;-67
2024/01/10 10:36:49;;;;;;;0.00;0.00;;;;;;;-2.80;81.45;145580.69;4975188;28;20313;-67
2024/01/10 10:39:17;;;;;;;0.00;0.00;;;;;;;-2.82;83.39;145577.00;4975601;28;20235;-67
2024/01/10 10:41:48;;;;;;;0.00;0.00;;;;;;;-2.82;82.38;145578.22;4977249;28;20291;-67
2024/01/10 10:44:21;;;;;;;0.00;0.00;;;;;;;-2.68;81.34;145611.56;4974212;28;20263;-67
2024/01/10 10:46:50;;;;;;;0.00;0.00;;;;;;;-2.69;81.29;145607.84;4973827;28;20695;-67
2024/01/10 10:49:21;;;;;;;0.00;0.00;;;;;;;-2.72;80.99;145600.44;4965151;28;20278;-68
2024/01/10 10:51:49;;;;;;;0.00;0.00;;;;;;;-2.65;80.99;145616.50;4975892;28;20217;-67
2024/01/10 10:54:20;;;;;;;0.00;0.00;;;;;;;-2.66;81.32;145615.22;4974359;28;20224;-67
2024/01/10 10:56:48;;;;;;;0.00;0.00;;;;;;;-2.50;79.75;145652.25;4975661;28;20228;-67
2024/01/10 10:59:21;;;;;;;0.00;0.00;;;;;;;-2.50;78.87;145653.44;4975238;28;20224;-66
2024/01/10 11:01:48;;;;;;;0.00;0.00;;;;;;;-2.52;79.41;145648.53;4970849;28;20636;-66
2024/01/10 11:04:18;;;;;;;0.00;0.00;;;;;;;-2.52;78.80;145649.78;4970405;28;20719;-66
2024/01/10 11:06:45;;;;;;;0.00;0.00;;;;;;;-2.39;78.00;145680.59;4977123;28;20213;-66
2024/01/10 11:09:15;;;;;;;0.00;0.00;;;;;;;-2.43;78.45;145669.53;4972192;28;20233;-66
2024/01/10 11:12:03;;;;;;;0.00;0.00;;;;;;;-2.33;78.56;145692.94;4965905;28;20228;-66
2024/01/10 11:14:42;;;;;;;0.00;0.00;;;;;;;-2.12;77.65;145744.78;4975064;28;20231;-66
2024/01/10 11:17:55;;;;;;;0.00;0.00;;;;;;;-2.14;77.15;145738.63;4983696;28;20234;-66
2024/01/10 11:20:36;;;;;;;0.00;0.00;;;;;;;-2.19;77.90;145726.28;4964547;28;20234;-66
2024/01/10 11:23:32;;;;;;;0.00;0.00;;;;;;;-1.99;77.62;145774.41;4975475;28;20233;-67
2024/01/10 11:25:59;;;;;;;0.00;0.00;;;;;;;-2.02;76.33;145767.00;4970235;28;20237;-67
2024/01/10 11:28:27;;;;;;;0.00;0.00;;;;;;;-2.06;77.39;145758.31;4975511;28;20224;-67